createdAt,value
2022-08-20T00:00:41.722Z,7.40
2022-08-20T00:05:49.464Z,7.68
2022-08-20T00:10:56.106Z,5.85
2022-08-20T00:15:59.525Z,6.05
2022-08-20T00:21:03.052Z,5.97
2022-08-20T00:26:09.768Z,6.35
2022-08-20T00:31:15.267Z,6.40
2022-08-20T00:36:19.198Z,7.70
2022-08-20T00:41:26.859Z,6.90
2022-08-20T00:46:31.662Z,8.98
2022-08-20T00:51:38.237Z,8.98
2022-08-20T00:56:44.920Z,7.85
2022-08-20T01:01:55.658Z,9.98
2022-08-20T01:06:59.597Z,9.57
2022-08-20T01:12:05.330Z,7.43
2022-08-20T01:17:11.078Z,7.13
2022-08-20T01:22:42.631Z,7.72
2022-08-20T01:27:48.047Z,12.27
2022-08-20T01:32:58.394Z,11.32
2022-08-20T01:38:01.590Z,15.43
2022-08-20T01:43:06.522Z,8.38
2022-08-20T01:48:09.849Z,10.38
2022-08-20T01:53:19.719Z,10.90
2022-08-20T01:58:24.503Z,8.50
2022-08-20T02:03:27.679Z,12.00
2022-08-20T02:08:33.286Z,15.25
2022-08-20T02:13:38.490Z,11.00
2022-08-20T02:18:41.821Z,11.35
2022-08-20T02:23:44.992Z,11.63
2022-08-20T02:28:51.685Z,11.70
2022-08-20T02:34:21.762Z,9.38
2022-08-20T02:39:17.709Z,10.98
2022-08-20T02:44:22.342Z,10.30
2022-08-20T02:49:26.124Z,8.68
2022-08-20T02:54:29.876Z,9.73
2022-08-20T02:59:34.384Z,8.48
2022-08-20T03:04:37.346Z,8.88
2022-08-20T03:09:40.823Z,11.43
2022-08-20T03:14:45.183Z,9.60
2022-08-20T03:19:48.201Z,12.10
2022-08-20T03:24:51.184Z,12.18
2022-08-20T03:29:58.414Z,9.00
2022-08-20T03:35:02.394Z,10.77
2022-08-20T03:40:10.085Z,7.15
2022-08-20T03:45:18.492Z,8.00
2022-08-20T03:50:25.801Z,9.85
2022-08-20T03:55:31.784Z,7.70
2022-08-20T04:00:39.444Z,7.03
2022-08-20T04:05:44.199Z,9.43
2022-08-20T04:10:48.614Z,9.55
2022-08-20T04:15:55.282Z,11.18
2022-08-20T04:20:58.547Z,7.97
2022-08-20T04:26:01.478Z,8.43
2022-08-20T04:31:05.841Z,10.52
2022-08-20T04:36:08.851Z,10.27
2022-08-20T04:41:23.283Z,7.85
2022-08-20T04:46:29.120Z,11.30
2022-08-20T04:51:33.425Z,11.18
2022-08-20T04:56:39.852Z,10.98
2022-08-20T05:01:44.186Z,5.72
2022-08-20T05:06:47.239Z,10.05
2022-08-20T05:11:50.505Z,6.40
2022-08-20T05:16:57.495Z,6.28
2022-08-20T05:22:00.803Z,6.55
2022-08-20T05:27:03.769Z,7.47
2022-08-20T05:32:08.189Z,6.70
2022-08-20T05:37:11.389Z,8.25
2022-08-20T05:42:14.909Z,9.05
2022-08-20T05:47:19.292Z,9.68
2022-08-20T05:52:25.171Z,11.88
2022-08-20T05:57:28.146Z,7.47
2022-08-20T06:02:49.749Z,9.75
2022-08-20T06:07:54.847Z,12.52
2022-08-20T06:13:09.025Z,9.95
2022-08-20T06:18:27.595Z,10.38
2022-08-20T06:23:54.499Z,7.00
2022-08-20T06:28:54.814Z,10.00
2022-08-20T06:34:00.253Z,9.40
2022-08-20T06:39:03.282Z,7.00
2022-08-20T06:44:07.721Z,8.15
2022-08-20T06:49:12.811Z,8.70
2022-08-20T06:54:15.767Z,10.07
2022-08-20T06:59:18.703Z,6.40
2022-08-20T07:04:23.322Z,10.65
2022-08-20T07:09:28.289Z,9.75
2022-08-20T07:14:31.393Z,8.93
2022-08-20T07:19:37.917Z,11.63
2022-08-20T07:24:48.992Z,8.63
2022-08-20T07:30:12.876Z,8.32
2022-08-20T07:35:20.599Z,12.43
2022-08-20T07:40:27.963Z,7.85
2022-08-20T07:45:31.747Z,8.23
2022-08-20T07:50:36.161Z,7.47
2022-08-20T07:55:41.558Z,9.20
2022-08-20T08:01:02.278Z,4.68
2022-08-20T08:06:29.585Z,7.85
2022-08-20T08:11:36.041Z,8.65
2022-08-20T08:16:40.009Z,6.63
2022-08-20T08:22:28.735Z,6.93
2022-08-20T08:27:34.548Z,7.57
2022-08-20T08:32:59.221Z,6.32
2022-08-20T08:38:04.538Z,9.43
2022-08-20T08:43:07.633Z,10.30
2022-08-20T08:48:16.478Z,9.70
2022-08-20T08:53:27.900Z,7.22
2022-08-20T08:58:31.989Z,6.80
2022-08-20T09:03:38.283Z,7.43
2022-08-20T09:08:46.761Z,7.07
2022-08-20T09:13:49.879Z,6.43
2022-08-20T09:18:53.325Z,4.88
2022-08-20T09:23:57.744Z,5.90
2022-08-20T09:29:00.901Z,7.72
2022-08-20T09:34:04.101Z,7.50
2022-08-20T09:39:10.004Z,6.18
2022-08-20T09:44:13.105Z,9.73
2022-08-20T09:49:16.177Z,8.00
2022-08-20T09:54:22.448Z,7.50
2022-08-20T09:59:26.806Z,5.18
2022-08-20T10:04:30.005Z,6.13
2022-08-20T10:09:35.934Z,4.53
2022-08-20T10:14:39.018Z,5.82
2022-08-20T10:19:42.074Z,7.57
2022-08-20T10:24:46.565Z,9.57
2022-08-20T10:29:55.302Z,5.68
2022-08-20T10:35:02.773Z,6.78
2022-08-20T10:40:09.422Z,9.30
2022-08-20T10:45:13.840Z,6.50
2022-08-20T10:50:20.159Z,7.13
2022-08-20T10:55:24.705Z,7.40
2022-08-20T11:00:28.019Z,7.38
2022-08-20T11:05:31.212Z,6.20
2022-08-20T11:10:36.799Z,7.43
2022-08-20T11:15:43.505Z,5.18
2022-08-20T11:20:46.701Z,4.47
2022-08-20T11:25:51.854Z,7.07
2022-08-20T11:30:55.011Z,6.07
2022-08-20T11:35:58.372Z,5.90
2022-08-20T11:41:02.878Z,5.70
2022-08-20T11:46:05.994Z,6.82
2022-08-20T11:51:09.158Z,5.70
2022-08-20T11:56:16.278Z,7.18
2022-08-20T12:01:19.821Z,6.70
2022-08-20T12:06:22.827Z,6.30
2022-08-20T12:11:27.381Z,5.97
2022-08-20T12:16:30.656Z,9.40
2022-08-20T12:21:35.087Z,9.50
2022-08-20T12:26:40.564Z,7.07
2022-08-20T12:31:44.788Z,5.43
2022-08-20T12:36:48.695Z,6.57
2022-08-20T12:41:54.262Z,8.93
2022-08-20T12:47:08.515Z,7.47
2022-08-20T12:52:11.520Z,6.07
2022-08-20T12:57:18.013Z,4.43
2022-08-20T13:02:21.004Z,7.30
2022-08-20T13:07:23.962Z,7.63
2022-08-20T13:12:28.573Z,6.57
2022-08-20T13:17:38.677Z,5.25
2022-08-20T13:22:42.666Z,7.53
2022-08-20T13:27:47.147Z,8.05
2022-08-20T13:32:50.601Z,9.68
2022-08-20T13:37:53.802Z,9.85
2022-08-20T13:42:58.660Z,5.63
2022-08-20T13:48:02.542Z,6.85
2022-08-20T13:53:07.365Z,6.70
2022-08-20T13:58:11.909Z,3.97
2022-08-20T14:03:17.763Z,10.68
2022-08-20T14:08:24.812Z,8.15
2022-08-20T14:13:29.194Z,7.55
2022-08-20T14:18:32.271Z,5.65
2022-08-20T14:23:36.856Z,4.80
2022-08-20T14:28:41.912Z,4.20
2022-08-20T14:33:45.169Z,3.90
2022-08-20T14:38:48.244Z,4.13
2022-08-20T14:43:52.549Z,7.38
2022-08-20T14:48:55.564Z,3.58
2022-08-20T14:53:58.631Z,3.65
2022-08-20T14:59:02.941Z,5.25
2022-08-20T15:04:06.236Z,4.63
2022-08-20T15:09:09.540Z,4.35
2022-08-20T15:14:15.133Z,5.55
2022-08-20T15:19:21.856Z,7.28
2022-08-20T15:24:25.485Z,5.55
2022-08-20T15:29:30.136Z,3.58
2022-08-20T15:34:34.933Z,3.38
2022-08-20T15:39:38.131Z,3.90
2022-08-20T15:44:44.014Z,5.22
2022-08-20T15:49:48.519Z,6.32
2022-08-20T15:54:54.856Z,2.83
2022-08-20T16:00:10.228Z,9.70
2022-08-20T16:05:23.661Z,3.53
2022-08-20T16:10:31.368Z,7.25
2022-08-20T16:15:40.269Z,6.53
2022-08-20T16:20:47.928Z,4.50
2022-08-20T16:26:00.948Z,6.43
2022-08-20T16:31:08.593Z,4.63
2022-08-20T16:36:27.744Z,4.18
2022-08-20T16:41:37.337Z,2.30
2022-08-20T16:46:51.425Z,2.63
2022-08-20T16:51:54.956Z,2.45
2022-08-20T16:57:02.764Z,3.17
2022-08-20T17:02:10.471Z,2.42
2022-08-20T17:07:13.784Z,8.00
2022-08-20T17:12:22.069Z,5.85
2022-08-20T17:17:28.723Z,9.23
2022-08-20T17:22:43.027Z,1.90
2022-08-20T17:27:46.501Z,2.78
2022-08-20T17:32:59.069Z,2.42
2022-08-20T17:38:04.036Z,3.38
2022-08-20T17:43:10.958Z,1.20
2022-08-20T17:48:19.298Z,4.68
2022-08-20T17:53:25.175Z,7.55
2022-08-20T17:58:38.587Z,4.13
2022-08-20T18:03:42.947Z,2.85
2022-08-20T18:08:56.828Z,4.93
2022-08-20T18:14:15.433Z,2.33
2022-08-20T18:19:36.689Z,3.38
2022-08-20T18:24:45.488Z,3.78
2022-08-20T18:29:53.555Z,2.95
2022-08-20T18:35:09.377Z,2.80
2022-08-20T18:40:24.511Z,2.55
2022-08-20T18:45:33.598Z,3.55
2022-08-20T18:50:47.988Z,2.70
2022-08-20T18:56:06.382Z,4.32
2022-08-20T19:01:13.785Z,1.73
2022-08-20T19:06:40.259Z,4.10
2022-08-20T19:11:59.014Z,4.43
2022-08-20T19:17:07.912Z,3.63
2022-08-20T19:22:17.957Z,4.40
2022-08-20T19:27:21.850Z,4.40
2022-08-20T19:32:27.388Z,4.25
2022-08-20T19:37:51.148Z,3.35
2022-08-20T19:42:55.839Z,3.22
2022-08-20T19:48:15.179Z,6.45
2022-08-20T19:53:30.010Z,2.65
2022-08-20T19:58:35.528Z,3.63
2022-08-20T20:03:39.723Z,5.10
2022-08-20T20:08:59.472Z,5.03
2022-08-20T20:14:05.376Z,2.53
2022-08-20T20:19:27.809Z,3.10
2022-08-20T20:24:43.964Z,2.25
2022-08-20T20:29:47.124Z,5.32
2022-08-20T20:34:55.597Z,3.85
2022-08-20T20:40:07.188Z,5.85
2022-08-20T20:45:22.180Z,3.67
2022-08-20T20:50:32.760Z,4.15
2022-08-20T20:55:39.914Z,3.80
2022-08-20T21:00:43.047Z,6.63
2022-08-20T21:05:46.120Z,6.05
2022-08-20T21:10:50.832Z,3.00
2022-08-20T21:15:54.136Z,2.88
2022-08-20T21:20:57.395Z,4.38
2022-08-20T21:26:02.305Z,3.25
2022-08-20T21:31:05.917Z,4.20
2022-08-20T21:36:09.455Z,6.72
2022-08-20T21:41:15.197Z,5.53
2022-08-20T21:46:24.842Z,5.43
2022-08-20T21:51:28.354Z,7.22
2022-08-20T21:56:33.926Z,4.35
2022-08-20T22:01:37.080Z,5.95
2022-08-20T22:06:40.116Z,4.47
2022-08-20T22:11:44.542Z,3.35
2022-08-20T22:16:47.574Z,5.28
2022-08-20T22:21:51.196Z,7.00
2022-08-20T22:26:55.771Z,3.10
2022-08-20T22:31:58.720Z,4.63
2022-08-20T22:37:03.837Z,4.07
2022-08-20T22:42:08.634Z,5.18
2022-08-20T22:47:13.824Z,5.35
2022-08-20T22:52:17.219Z,3.15
2022-08-20T22:57:21.638Z,5.82
2022-08-20T23:02:25.591Z,5.40
2022-08-20T23:07:28.881Z,8.40
2022-08-20T23:12:33.467Z,2.72
2022-08-20T23:17:38.057Z,5.07
2022-08-20T23:22:41.066Z,4.30
2022-08-20T23:27:48.184Z,4.65
2022-08-20T23:32:51.753Z,3.10
2022-08-20T23:37:57.376Z,4.45
2022-08-20T23:43:01.871Z,4.10
2022-08-20T23:48:05.394Z,4.45
2022-08-20T23:53:08.375Z,5.70
2022-08-20T23:58:12.732Z,5.72
